Time,TemperatureF,DewpointF,PressureIn,WindDirection,WindDirectionDegrees,WindSpeedMPH,WindSpeedGustMPH,Humidity,HourlyPrecipIn,Conditions,Clouds,dailyrainin,SoftwareType,DateUTC
2013-05-07 00:12:00,35.0,30.0,29.90,SSE,159,0.0,4.0,81,0.00,,,0.00,weatherlink.com 1.10,2013-05-07 06:12:00,
2013-05-07 00:27:00,34.8,30.0,29.89,South,177,1.0,2.0,81,0.00,,,0.00,weatherlink.com 1.10,2013-05-07 06:27:00,
2013-05-07 00:42:00,34.2,29.0,29.89,SW,235,2.0,2.0,82,0.00,,,0.00,weatherlink.com 1.10,2013-05-07 06:42:00,
2013-05-07 00:57:00,33.5,29.0,29.89,SW,215,1.0,3.0,83,0.00,,,0.00,weatherlink.com 1.10,2013-05-07 06:57:00,
2013-05-07 01:12:00,33.5,29.0,29.89,SW,218,2.0,3.0,83,0.00,,,0.00,weatherlink.com 1.10,2013-05-07 07:12:00,
2013-05-07 01:28:00,33.1,29.0,29.89,WSW,254,1.0,5.0,84,0.00,,,0.00,weatherlink.com 1.10,2013-05-07 07:28:00,
2013-05-07 01:43:00,32.9,29.0,29.88,SSW,209,0.0,2.0,84,0.00,,,0.00,weatherlink.com 1.10,2013-05-07 07:43:00,
2013-05-07 01:58:00,32.8,29.0,29.88,SSW,212,0.0,3.0,84,0.00,,,0.00,weatherlink.com 1.10,2013-05-07 07:58:00,
2013-05-07 02:13:00,32.3,29.0,29.88,SW,231,0.0,2.0,86,0.00,,,0.00,weatherlink.com 1.10,2013-05-07 08:13:00,
2013-05-07 02:28:00,31.9,29.0,29.88,SSW,207,1.0,2.0,87,0.00,,,0.00,weatherlink.com 1.10,2013-05-07 08:28:00,
2013-05-07 02:43:00,32.9,29.0,29.88,ENE,73,0.0,1.0,85,0.00,,,0.00,weatherlink.com 1.10,2013-05-07 08:43:00,
2013-05-07 02:58:00,33.3,29.0,29.88,SE,136,0.0,0.0,85,0.00,,,0.00,weatherlink.com 1.10,2013-05-07 08:58:00,
2013-05-07 03:13:00,35.5,31.0,29.88,West,259,5.0,6.0,83,0.00,,,0.00,weatherlink.com 1.10,2013-05-07 09:13:00,
2013-05-07 03:28:00,39.0,32.0,29.88,WNW,287,6.0,11.0,75,0.00,,,0.00,weatherlink.com 1.10,2013-05-07 09:28:00,
2013-05-07 03:43:00,39.7,31.0,29.88,WSW,237,8.0,12.0,72,0.00,,,0.00,weatherlink.com 1.10,2013-05-07 09:43:00,
2013-05-07 03:58:00,40.4,31.0,29.88,WSW,239,4.0,13.0,68,0.00,,,0.00,weatherlink.com 1.10,2013-05-07 09:58:00,
2013-05-07 04:13:00,40.7,30.0,29.87,SW,235,15.0,15.0,66,0.00,,,0.00,weatherlink.com 1.10,2013-05-07 10:13:00,
2013-05-07 04:28:00,40.4,30.0,29.87,West,264,6.0,18.0,66,0.00,,,0.00,weatherlink.com 1.10,2013-05-07 10:28:00,
2013-05-07 04:43:00,40.4,29.0,29.87,South,175,4.0,21.0,65,0.00,,,0.00,weatherlink.com 1.10,2013-05-07 10:43:00,
2013-05-07 04:58:00,40.3,29.0,29.87,West,264,11.0,18.0,65,0.00,,,0.00,weatherlink.com 1.10,2013-05-07 10:58:00,
2013-05-07 05:13:00,40.2,29.0,29.87,WSW,239,13.0,20.0,65,0.00,,,0.00,weatherlink.com 1.10,2013-05-07 11:13:00,
2013-05-07 05:28:00,40.2,30.0,29.86,West,263,10.0,18.0,67,0.00,,,0.00,weatherlink.com 1.10,2013-05-07 11:28:00,
2013-05-07 05:43:00,40.2,30.0,29.87,NNW,335,6.0,22.0,68,0.00,,,0.00,weatherlink.com 1.10,2013-05-07 11:43:00,
2013-05-07 05:58:00,39.8,31.0,29.88,SSW,212,4.0,14.0,70,0.00,,,0.00,weatherlink.com 1.10,2013-05-07 11:58:00,
2013-05-07 06:13:00,39.4,31.0,29.87,West,267,4.0,18.0,71,0.00,,,0.00,weatherlink.com 1.10,2013-05-07 12:13:00,
2013-05-07 06:28:00,39.5,30.0,29.88,WSW,252,10.0,19.0,69,0.00,,,0.00,weatherlink.com 1.10,2013-05-07 12:28:00,
2013-05-07 06:43:00,39.3,30.0,29.88,WSW,239,6.0,24.0,69,0.00,,,0.00,weatherlink.com 1.10,2013-05-07 12:43:00,
2013-05-07 06:59:00,39.4,30.0,29.89,WSW,256,8.0,16.0,68,0.00,,,0.00,weatherlink.com 1.10,2013-05-07 12:59:00,
2013-05-07 07:13:00,39.6,30.0,29.89,WSW,252,3.0,15.0,68,0.00,,,0.00,weatherlink.com 1.10,2013-05-07 13:13:00,
2013-05-07 07:28:00,40.2,30.0,29.89,NW,320,4.0,10.0,67,0.00,,,0.00,weatherlink.com 1.10,2013-05-07 13:28:00,
2013-05-07 07:43:00,41.1,30.0,29.89,WNW,293,2.0,8.0,66,0.00,,,0.00,weatherlink.com 1.10,2013-05-07 13:43:00,
2013-05-07 07:58:00,42.4,30.0,29.88,West,271,1.0,13.0,62,0.00,,,0.00,weatherlink.com 1.10,2013-05-07 13:58:00,
2013-05-07 08:13:00,43.6,30.0,29.88,West,268,3.0,15.0,59,0.00,,,0.00,weatherlink.com 1.10,2013-05-07 14:13:00,
2013-05-07 08:28:00,44.8,30.0,29.88,West,274,14.0,20.0,56,0.00,,,0.00,weatherlink.com 1.10,2013-05-07 14:28:00,
2013-05-07 08:43:00,44.6,29.0,29.88,WSW,245,9.0,15.0,55,0.00,,,0.00,weatherlink.com 1.10,2013-05-07 14:43:00,
2013-05-07 08:59:00,45.6,29.0,29.88,WNW,283,4.0,19.0,53,0.00,,,0.00,weatherlink.com 1.10,2013-05-07 14:59:00,
2013-05-07 09:14:00,45.2,29.0,29.88,WNW,289,9.0,30.0,54,0.00,,,0.00,weatherlink.com 1.10,2013-05-07 15:14:00,
2013-05-07 09:29:00,45.3,30.0,29.87,WSW,255,9.0,18.0,55,0.00,,,0.00,weatherlink.com 1.10,2013-05-07 15:29:00,
2013-05-07 09:44:00,45.6,30.0,29.87,WNW,285,6.0,20.0,54,0.00,,,0.00,weatherlink.com 1.10,2013-05-07 15:44:00,
2013-05-07 09:59:00,47.3,30.0,29.87,WSW,238,6.0,18.0,52,0.00,,,0.00,weatherlink.com 1.10,2013-05-07 15:59:00,
2013-05-07 10:14:00,46.2,30.0,29.87,WSW,255,9.0,20.0,53,0.00,,,0.00,weatherlink.com 1.10,2013-05-07 16:14:00,
2013-05-07 10:29:00,46.4,30.0,29.87,West,268,4.0,19.0,53,0.00,,,0.00,weatherlink.com 1.10,2013-05-07 16:29:00,
2013-05-07 10:44:00,47.8,30.0,29.87,WNW,283,10.0,21.0,51,0.00,,,0.00,weatherlink.com 1.10,2013-05-07 16:44:00,
2013-05-07 10:59:00,48.2,30.0,29.87,SW,233,5.0,18.0,50,0.00,,,0.00,weatherlink.com 1.10,2013-05-07 16:59:00,
2013-05-07 11:14:00,48.5,29.0,29.87,West,274,8.0,21.0,48,0.00,,,0.00,weatherlink.com 1.10,2013-05-07 17:14:00,
2013-05-07 11:29:00,49.1,28.0,29.87,WNW,292,9.0,19.0,45,0.00,,,0.00,weatherlink.com 1.10,2013-05-07 17:29:00,
2013-05-07 11:44:00,49.7,31.0,29.86,SSW,201,18.0,21.0,48,0.00,,,0.00,weatherlink.com 1.10,2013-05-07 17:44:00,
2013-05-07 11:59:00,49.5,29.0,29.87,West,279,12.0,18.0,46,0.00,,,0.00,weatherlink.com 1.10,2013-05-07 17:59:00,
2013-05-07 12:14:00,50.4,30.0,29.86,NW,304,15.0,17.0,46,0.00,,,0.00,weatherlink.com 1.10,2013-05-07 18:14:00,
2013-05-07 12:29:00,50.7,28.0,29.86,West,273,11.0,15.0,41,0.00,,,0.00,weatherlink.com 1.10,2013-05-07 18:29:00,
2013-05-07 12:44:00,51.5,27.0,29.85,NW,311,6.0,18.0,39,0.00,,,0.00,weatherlink.com 1.10,2013-05-07 18:44:00,
2013-05-07 12:59:00,52.2,28.0,29.84,West,273,4.0,16.0,40,0.00,,,0.00,weatherlink.com 1.10,2013-05-07 18:59:00,
2013-05-07 13:14:00,52.4,28.0,29.84,NW,316,6.0,14.0,39,0.00,,,0.00,weatherlink.com 1.10,2013-05-07 19:14:00,
2013-05-07 13:29:00,52.2,28.0,29.84,NNW,328,8.0,12.0,40,0.00,,,0.00,weatherlink.com 1.10,2013-05-07 19:29:00,
2013-05-07 13:44:00,53.7,26.0,29.84,NW,312,4.0,12.0,35,0.00,,,0.00,weatherlink.com 1.10,2013-05-07 19:44:00,
2013-05-07 13:59:00,54.3,26.0,29.83,SE,137,4.0,12.0,34,0.00,,,0.00,weatherlink.com 1.10,2013-05-07 19:59:00,
2013-05-07 14:14:00,56.2,26.0,29.83,SSW,211,5.0,10.0,31,0.00,,,0.00,weatherlink.com 1.10,2013-05-07 20:14:00,
2013-05-07 14:29:00,54.3,24.0,29.83,NE,41,3.0,13.0,31,0.00,,,0.00,weatherlink.com 1.10,2013-05-07 20:29:00,
2013-05-07 14:44:00,54.3,26.0,29.83,WNW,284,7.0,13.0,33,0.00,,,0.00,weatherlink.com 1.10,2013-05-07 20:44:00,
2013-05-07 14:59:00,55.4,26.0,29.82,SW,218,4.0,14.0,32,0.00,,,0.00,weatherlink.com 1.10,2013-05-07 20:59:00,
2013-05-07 15:14:00,54.8,29.0,29.82,NNE,32,4.0,11.0,37,0.00,,,0.00,weatherlink.com 1.10,2013-05-07 21:14:00,
2013-05-07 15:29:00,52.6,33.0,29.81,SSE,148,2.0,8.0,48,0.00,,,0.00,weatherlink.com 1.10,2013-05-07 21:29:00,
2013-05-07 15:44:00,52.7,34.0,29.81,NNE,18,3.0,6.0,49,0.00,,,0.00,weatherlink.com 1.10,2013-05-07 21:44:00,
2013-05-07 15:59:00,53.7,28.0,29.81,West,269,4.0,10.0,37,0.00,,,0.00,weatherlink.com 1.10,2013-05-07 21:59:00,
2013-05-07 16:14:00,53.7,27.0,29.80,West,271,6.0,12.0,36,0.00,,,0.00,weatherlink.com 1.10,2013-05-07 22:14:00,
2013-05-07 16:29:00,54.5,26.0,29.80,NE,50,1.0,13.0,33,0.00,,,0.00,weatherlink.com 1.10,2013-05-07 22:29:00,
2013-05-07 16:44:00,54.8,25.0,29.80,NW,317,4.0,15.0,31,0.00,,,0.00,weatherlink.com 1.10,2013-05-07 22:44:00,
2013-05-07 16:59:00,55.1,28.0,29.80,WNW,292,3.0,14.0,35,0.00,,,0.00,weatherlink.com 1.10,2013-05-07 22:59:00,
2013-05-07 17:14:00,54.0,27.0,29.81,NNW,339,3.0,10.0,36,0.00,,,0.00,weatherlink.com 1.10,2013-05-07 23:14:00,
2013-05-07 17:29:00,53.0,28.0,29.82,ESE,118,1.0,6.0,38,0.00,,,0.00,weatherlink.com 1.10,2013-05-07 23:29:00,
2013-05-07 17:44:00,49.9,33.0,29.82,ENE,71,2.0,6.0,53,0.00,,,0.00,weatherlink.com 1.10,2013-05-07 23:44:00,
2013-05-07 18:00:00,45.3,36.0,29.84,East,84,5.0,12.0,69,0.00,,,0.00,weatherlink.com 1.10,2013-05-08 00:00:00,
2013-05-07 18:15:00,41.2,36.0,29.84,ENE,70,2.0,6.0,82,0.04,,,0.04,weatherlink.com 1.10,2013-05-08 00:15:00,
2013-05-07 18:30:00,40.6,37.0,29.83,SE,134,1.0,6.0,86,0.06,,,0.06,weatherlink.com 1.10,2013-05-08 00:30:00,
2013-05-07 18:45:00,40.2,37.0,29.84,WSW,248,3.0,3.0,88,0.06,,,0.06,weatherlink.com 1.10,2013-05-08 00:45:00,
2013-05-07 19:00:00,40.6,37.0,29.85,West,276,0.0,3.0,88,0.06,,,0.06,weatherlink.com 1.10,2013-05-08 01:00:00,
2013-05-07 19:15:00,41.0,38.0,29.85,West,272,1.0,2.0,88,0.02,,,0.06,weatherlink.com 1.10,2013-05-08 01:15:00,
2013-05-07 19:30:00,40.9,38.0,29.86,North,352,2.0,2.0,88,0.00,,,0.06,weatherlink.com 1.10,2013-05-08 01:30:00,
2013-05-07 19:45:00,40.3,37.0,29.86,NE,41,1.0,3.0,87,0.00,,,0.06,weatherlink.com 1.10,2013-05-08 01:45:00,
2013-05-07 20:00:00,39.7,37.0,29.86,North,353,0.0,0.0,88,0.00,,,0.06,weatherlink.com 1.10,2013-05-08 02:00:00,
2013-05-07 20:15:00,39.4,37.0,29.87,SSE,165,2.0,5.0,90,0.00,,,0.06,weatherlink.com 1.10,2013-05-08 02:15:00,
2013-05-07 20:30:00,39.5,37.0,29.87,SE,126,0.0,3.0,89,0.00,,,0.06,weatherlink.com 1.10,2013-05-08 02:30:00,
2013-05-07 20:45:00,39.6,36.0,29.87,SE,134,0.0,1.0,88,0.00,,,0.06,weatherlink.com 1.10,2013-05-08 02:45:00,
2013-05-07 21:00:00,39.2,37.0,29.87,East,85,0.0,0.0,90,0.00,,,0.06,weatherlink.com 1.10,2013-05-08 03:00:00,
2013-05-07 21:15:00,39.0,37.0,29.88,NW,314,0.0,0.0,91,0.00,,,0.06,weatherlink.com 1.10,2013-05-08 03:15:00,
2013-05-07 21:30:00,38.8,36.0,29.89,NNW,330,0.0,4.0,91,0.00,,,0.06,weatherlink.com 1.10,2013-05-08 03:30:00,
2013-05-07 21:45:00,38.7,36.0,29.90,WNW,291,0.0,1.0,90,0.00,,,0.06,weatherlink.com 1.10,2013-05-08 03:45:00,
2013-05-07 22:00:00,38.1,36.0,29.91,WNW,291,0.0,0.0,91,0.00,,,0.06,weatherlink.com 1.10,2013-05-08 04:00:00,
2013-05-07 22:15:00,37.9,36.0,29.91,WSW,237,0.0,0.0,92,0.00,,,0.06,weatherlink.com 1.10,2013-05-08 04:15:00,
2013-05-07 22:30:00,37.5,35.0,29.92,West,270,1.0,1.0,92,0.00,,,0.06,weatherlink.com 1.10,2013-05-08 04:30:00,
2013-05-07 22:45:00,36.9,35.0,29.91,WSW,240,0.0,0.0,93,0.00,,,0.06,weatherlink.com 1.10,2013-05-08 04:45:00,
2013-05-07 23:00:00,35.9,34.0,29.91,WSW,240,0.0,0.0,92,0.00,,,0.06,weatherlink.com 1.10,2013-05-08 05:00:00,
2013-05-07 23:15:00,34.6,33.0,29.91,WSW,240,0.0,0.0,92,0.00,,,0.06,weatherlink.com 1.10,2013-05-08 05:15:00,
2013-05-07 23:30:00,33.7,32.0,29.91,WSW,240,0.0,0.0,93,0.00,,,0.06,weatherlink.com 1.10,2013-05-08 05:30:00,
2013-05-07 23:45:00,32.9,31.0,29.91,WSW,240,0.0,0.0,93,0.00,,,0.06,weatherlink.com 1.10,2013-05-08 05:45:00,